sensor_id;sensor_type;location;lat;lon;timestamp;P1;durP1;ratioP1;P2;durP2;ratioP2
63499;SDS011;49654;51.142;14.924;2023-05-07T00:01:27;21.52;;;15.18;;
63499;SDS011;49654;51.142;14.924;2023-05-07T00:03:54;20.60;;;16.00;;
63499;SDS011;49654;51.142;14.924;2023-05-07T00:06:21;25.23;;;16.67;;
63499;SDS011;49654;51.142;14.924;2023-05-07T00:08:48;24.13;;;17.38;;
63499;SDS011;49654;51.142;14.924;2023-05-07T00:11:16;24.52;;;17.77;;
63499;SDS011;49654;51.142;14.924;2023-05-07T00:13:43;25.63;;;18.42;;
63499;SDS011;49654;51.142;14.924;2023-05-07T00:16:10;25.50;;;18.45;;
63499;SDS011;49654;51.142;14.924;2023-05-07T00:18:37;26.73;;;17.88;;
63499;SDS011;49654;51.142;14.924;2023-05-07T00:21:04;27.45;;;17.58;;
63499;SDS011;49654;51.142;14.924;2023-05-07T00:23:31;23.70;;;16.95;;
63499;SDS011;49654;51.142;14.924;2023-05-07T00:25:58;25.02;;;17.85;;
63499;SDS011;49654;51.142;14.924;2023-05-07T00:28:26;25.85;;;18.30;;
63499;SDS011;49654;51.142;14.924;2023-05-07T00:30:53;25.60;;;18.00;;
63499;SDS011;49654;51.142;14.924;2023-05-07T00:33:20;28.40;;;19.25;;
63499;SDS011;49654;51.142;14.924;2023-05-07T00:35:47;25.20;;;18.35;;
63499;SDS011;49654;51.142;14.924;2023-05-07T00:38:15;25.55;;;18.83;;
63499;SDS011;49654;51.142;14.924;2023-05-07T00:40:42;25.00;;;18.17;;
63499;SDS011;49654;51.142;14.924;2023-05-07T00:43:08;24.77;;;18.35;;
63499;SDS011;49654;51.142;14.924;2023-05-07T00:45:37;25.58;;;19.10;;
63499;SDS011;49654;51.142;14.924;2023-05-07T00:48:04;24.85;;;18.80;;
63499;SDS011;49654;51.142;14.924;2023-05-07T00:50:31;26.23;;;18.30;;
63499;SDS011;49654;51.142;14.924;2023-05-07T00:52:59;26.00;;;18.30;;
63499;SDS011;49654;51.142;14.924;2023-05-07T00:55:27;28.00;;;19.40;;
63499;SDS011;49654;51.142;14.924;2023-05-07T00:57:54;27.20;;;19.45;;
63499;SDS011;49654;51.142;14.924;2023-05-07T01:00:21;24.90;;;18.38;;
63499;SDS011;49654;51.142;14.924;2023-05-07T01:02:51;25.67;;;18.52;;
63499;SDS011;49654;51.142;14.924;2023-05-07T01:05:20;29.70;;;20.95;;
63499;SDS011;49654;51.142;14.924;2023-05-07T01:07:49;26.58;;;20.10;;
63499;SDS011;49654;51.142;14.924;2023-05-07T01:10:18;27.25;;;20.42;;
63499;SDS011;49654;51.142;14.924;2023-05-07T01:12:46;26.75;;;20.40;;
63499;SDS011;49654;51.142;14.924;2023-05-07T01:15:14;27.00;;;21.02;;
63499;SDS011;49654;51.142;14.924;2023-05-07T01:17:42;26.17;;;20.88;;
63499;SDS011;49654;51.142;14.924;2023-05-07T01:20:11;29.98;;;21.70;;
63499;SDS011;49654;51.142;14.924;2023-05-07T01:22:39;28.17;;;21.70;;
63499;SDS011;49654;51.142;14.924;2023-05-07T01:25:07;31.38;;;21.65;;
63499;SDS011;49654;51.142;14.924;2023-05-07T01:27:34;33.05;;;21.80;;
63499;SDS011;49654;51.142;14.924;2023-05-07T01:30:02;27.33;;;19.77;;
63499;SDS011;49654;51.142;14.924;2023-05-07T01:32:31;29.23;;;21.10;;
63499;SDS011;49654;51.142;14.924;2023-05-07T01:35:07;31.02;;;22.50;;
63499;SDS011;49654;51.142;14.924;2023-05-07T01:37:39;33.13;;;22.27;;
63499;SDS011;49654;51.142;14.924;2023-05-07T01:40:07;27.15;;;20.85;;
63499;SDS011;49654;51.142;14.924;2023-05-07T01:42:35;28.70;;;21.27;;
63499;SDS011;49654;51.142;14.924;2023-05-07T01:45:03;33.60;;;22.52;;
63499;SDS011;49654;51.142;14.924;2023-05-07T01:47:30;35.40;;;20.80;;
63499;SDS011;49654;51.142;14.924;2023-05-07T01:49:57;26.92;;;20.40;;
63499;SDS011;49654;51.142;14.924;2023-05-07T01:52:24;29.20;;;19.30;;
63499;SDS011;49654;51.142;14.924;2023-05-07T01:54:53;25.45;;;19.70;;
63499;SDS011;49654;51.142;14.924;2023-05-07T01:57:20;29.25;;;20.70;;
63499;SDS011;49654;51.142;14.924;2023-05-07T01:59:47;27.48;;;20.27;;
63499;SDS011;49654;51.142;14.924;2023-05-07T02:02:14;25.30;;;19.23;;
63499;SDS011;49654;51.142;14.924;2023-05-07T02:04:41;25.35;;;19.38;;
63499;SDS011;49654;51.142;14.924;2023-05-07T02:07:07;25.75;;;18.23;;
63499;SDS011;49654;51.142;14.924;2023-05-07T02:09:35;24.15;;;17.63;;
63499;SDS011;49654;51.142;14.924;2023-05-07T02:12:04;25.38;;;18.13;;
63499;SDS011;49654;51.142;14.924;2023-05-07T02:14:31;24.38;;;18.60;;
63499;SDS011;49654;51.142;14.924;2023-05-07T02:16:58;25.58;;;18.83;;
63499;SDS011;49654;51.142;14.924;2023-05-07T02:19:25;24.23;;;18.40;;
63499;SDS011;49654;51.142;14.924;2023-05-07T02:21:51;26.90;;;19.52;;
63499;SDS011;49654;51.142;14.924;2023-05-07T02:24:18;27.27;;;19.20;;
63499;SDS011;49654;51.142;14.924;2023-05-07T02:26:45;26.67;;;20.23;;
63499;SDS011;49654;51.142;14.924;2023-05-07T02:29:14;31.13;;;20.25;;
63499;SDS011;49654;51.142;14.924;2023-05-07T02:31:40;28.23;;;20.58;;
63499;SDS011;49654;51.142;14.924;2023-05-07T02:34:07;27.10;;;19.77;;
63499;SDS011;49654;51.142;14.924;2023-05-07T02:36:34;28.73;;;20.05;;
63499;SDS011;49654;51.142;14.924;2023-05-07T02:39:01;28.60;;;19.50;;
63499;SDS011;49654;51.142;14.924;2023-05-07T02:41:28;28.75;;;19.95;;
63499;SDS011;49654;51.142;14.924;2023-05-07T02:43:55;27.48;;;19.50;;
63499;SDS011;49654;51.142;14.924;2023-05-07T02:46:23;28.70;;;19.40;;
63499;SDS011;49654;51.142;14.924;2023-05-07T02:48:50;30.90;;;19.50;;
63499;SDS011;49654;51.142;14.924;2023-05-07T02:51:19;27.13;;;19.45;;
63499;SDS011;49654;51.142;14.924;2023-05-07T02:53:46;26.50;;;18.23;;
63499;SDS011;49654;51.142;14.924;2023-05-07T02:56:13;26.90;;;17.88;;
63499;SDS011;49654;51.142;14.924;2023-05-07T02:58:40;25.63;;;18.20;;
63499;SDS011;49654;51.142;14.924;2023-05-07T03:01:08;24.33;;;17.73;;
63499;SDS011;49654;51.142;14.924;2023-05-07T03:03:36;25.35;;;18.20;;
63499;SDS011;49654;51.142;14.924;2023-05-07T03:06:03;24.58;;;18.08;;
63499;SDS011;49654;51.142;14.924;2023-05-07T03:08:30;24.90;;;18.15;;
63499;SDS011;49654;51.142;14.924;2023-05-07T03:10:57;24.23;;;17.83;;
63499;SDS011;49654;51.142;14.924;2023-05-07T03:13:25;22.90;;;17.58;;
63499;SDS011;49654;51.142;14.924;2023-05-07T03:15:51;21.80;;;16.75;;
63499;SDS011;49654;51.142;14.924;2023-05-07T03:18:18;23.88;;;17.27;;
63499;SDS011;49654;51.142;14.924;2023-05-07T03:20:47;21.95;;;16.73;;
63499;SDS011;49654;51.142;14.924;2023-05-07T03:23:15;24.05;;;17.42;;
63499;SDS011;49654;51.142;14.924;2023-05-07T03:25:41;22.75;;;17.92;;
63499;SDS011;49654;51.142;14.924;2023-05-07T03:28:08;23.83;;;16.58;;
63499;SDS011;49654;51.142;14.924;2023-05-07T03:30:35;23.63;;;17.80;;
63499;SDS011;49654;51.142;14.924;2023-05-07T03:33:02;23.92;;;17.33;;
63499;SDS011;49654;51.142;14.924;2023-05-07T03:35:29;22.48;;;17.17;;
63499;SDS011;49654;51.142;14.924;2023-05-07T03:37:57;22.52;;;16.90;;
63499;SDS011;49654;51.142;14.924;2023-05-07T03:40:24;20.75;;;16.65;;
63499;SDS011;49654;51.142;14.924;2023-05-07T03:42:51;22.15;;;16.75;;
63499;SDS011;49654;51.142;14.924;2023-05-07T03:45:18;22.50;;;15.63;;
63499;SDS011;49654;51.142;14.924;2023-05-07T03:47:45;21.25;;;16.83;;
63499;SDS011;49654;51.142;14.924;2023-05-07T03:50:12;22.95;;;17.00;;
63499;SDS011;49654;51.142;14.924;2023-05-07T03:52:39;22.35;;;17.13;;
63499;SDS011;49654;51.142;14.924;2023-05-07T03:55:08;23.70;;;16.88;;
63499;SDS011;49654;51.142;14.924;2023-05-07T03:57:35;24.35;;;18.00;;
63499;SDS011;49654;51.142;14.924;2023-05-07T04:00:02;22.13;;;17.75;;
63499;SDS011;49654;51.142;14.924;2023-05-07T04:02:31;23.48;;;16.55;;
63499;SDS011;49654;51.142;14.924;2023-05-07T04:04:58;24.33;;;16.17;;
63499;SDS011;49654;51.142;14.924;2023-05-07T04:07:24;20.63;;;15.52;;
63499;SDS011;49654;51.142;14.924;2023-05-07T04:09:51;21.63;;;15.25;;
63499;SDS011;49654;51.142;14.924;2023-05-07T04:12:19;19.90;;;16.02;;
63499;SDS011;49654;51.142;14.924;2023-05-07T04:14:46;20.05;;;15.13;;
63499;SDS011;49654;51.142;14.924;2023-05-07T04:17:13;22.17;;;15.60;;
63499;SDS011;49654;51.142;14.924;2023-05-07T04:19:40;18.45;;;14.70;;
63499;SDS011;49654;51.142;14.924;2023-05-07T04:22:10;14.82;;;12.30;;
63499;SDS011;49654;51.142;14.924;2023-05-07T04:24:38;14.30;;;12.35;;
63499;SDS011;49654;51.142;14.924;2023-05-07T04:27:05;17.08;;;13.40;;
63499;SDS011;49654;51.142;14.924;2023-05-07T04:29:33;16.45;;;12.80;;
63499;SDS011;49654;51.142;14.924;2023-05-07T04:32:00;16.45;;;13.25;;
63499;SDS011;49654;51.142;14.924;2023-05-07T04:34:27;17.02;;;13.23;;
63499;SDS011;49654;51.142;14.924;2023-05-07T04:36:57;18.17;;;12.95;;
63499;SDS011;49654;51.142;14.924;2023-05-07T04:39:25;14.32;;;12.07;;
63499;SDS011;49654;51.142;14.924;2023-05-07T04:41:52;16.60;;;11.32;;
63499;SDS011;49654;51.142;14.924;2023-05-07T04:44:18;13.57;;;10.90;;
63499;SDS011;49654;51.142;14.924;2023-05-07T04:46:47;11.85;;;9.90;;
63499;SDS011;49654;51.142;14.924;2023-05-07T04:49:14;11.52;;;10.32;;
63499;SDS011;49654;51.142;14.924;2023-05-07T04:51:41;11.27;;;9.43;;
63499;SDS011;49654;51.142;14.924;2023-05-07T04:54:08;11.95;;;9.85;;
63499;SDS011;49654;51.142;14.924;2023-05-07T04:56:35;11.00;;;9.85;;
63499;SDS011;49654;51.142;14.924;2023-05-07T04:59:02;12.32;;;10.77;;
63499;SDS011;49654;51.142;14.924;2023-05-07T05:01:29;10.20;;;9.18;;
63499;SDS011;49654;51.142;14.924;2023-05-07T05:03:57;12.52;;;10.63;;
63499;SDS011;49654;51.142;14.924;2023-05-07T05:06:25;9.90;;;8.90;;
63499;SDS011;49654;51.142;14.924;2023-05-07T05:08:52;10.15;;;8.77;;
63499;SDS011;49654;51.142;14.924;2023-05-07T05:11:19;9.13;;;8.18;;
63499;SDS011;49654;51.142;14.924;2023-05-07T05:13:46;9.60;;;8.57;;
63499;SDS011;49654;51.142;14.924;2023-05-07T05:16:14;9.63;;;8.50;;
63499;SDS011;49654;51.142;14.924;2023-05-07T05:18:41;10.07;;;8.95;;
63499;SDS011;49654;51.142;14.924;2023-05-07T05:21:09;9.00;;;8.10;;
63499;SDS011;49654;51.142;14.924;2023-05-07T05:23:36;9.48;;;8.55;;
63499;SDS011;49654;51.142;14.924;2023-05-07T05:26:03;10.13;;;8.52;;
63499;SDS011;49654;51.142;14.924;2023-05-07T05:28:30;9.73;;;8.77;;
63499;SDS011;49654;51.142;14.924;2023-05-07T05:30:57;10.15;;;9.02;;
63499;SDS011;49654;51.142;14.924;2023-05-07T05:33:24;11.27;;;9.40;;
63499;SDS011;49654;51.142;14.924;2023-05-07T05:35:51;11.18;;;10.07;;
63499;SDS011;49654;51.142;14.924;2023-05-07T05:38:19;10.80;;;9.70;;
63499;SDS011;49654;51.142;14.924;2023-05-07T05:40:46;12.88;;;9.63;;
63499;SDS011;49654;51.142;14.924;2023-05-07T05:43:13;16.35;;;14.20;;
63499;SDS011;49654;51.142;14.924;2023-05-07T05:45:40;30.33;;;27.27;;
63499;SDS011;49654;51.142;14.924;2023-05-07T05:48:07;18.55;;;16.33;;
63499;SDS011;49654;51.142;14.924;2023-05-07T05:50:35;19.10;;;15.50;;
63499;SDS011;49654;51.142;14.924;2023-05-07T05:53:02;21.88;;;16.88;;
63499;SDS011;49654;51.142;14.924;2023-05-07T05:55:30;21.90;;;16.92;;
63499;SDS011;49654;51.142;14.924;2023-05-07T05:57:58;22.92;;;18.75;;
63499;SDS011;49654;51.142;14.924;2023-05-07T06:00:25;23.85;;;17.23;;
63499;SDS011;49654;51.142;14.924;2023-05-07T06:02:52;22.88;;;17.77;;
63499;SDS011;49654;51.142;14.924;2023-05-07T06:05:19;21.17;;;16.83;;
63499;SDS011;49654;51.142;14.924;2023-05-07T06:07:46;23.98;;;18.17;;
63499;SDS011;49654;51.142;14.924;2023-05-07T06:10:13;20.10;;;16.67;;
63499;SDS011;49654;51.142;14.924;2023-05-07T06:12:41;19.77;;;16.17;;
63499;SDS011;49654;51.142;14.924;2023-05-07T06:15:08;20.98;;;17.02;;
63499;SDS011;49654;51.142;14.924;2023-05-07T06:17:36;21.05;;;17.23;;
63499;SDS011;49654;51.142;14.924;2023-05-07T06:20:03;21.02;;;16.30;;
63499;SDS011;49654;51.142;14.924;2023-05-07T06:22:31;22.40;;;16.55;;
63499;SDS011;49654;51.142;14.924;2023-05-07T06:24:58;18.92;;;16.67;;
63499;SDS011;49654;51.142;14.924;2023-05-07T06:27:25;19.55;;;15.82;;
63499;SDS011;49654;51.142;14.924;2023-05-07T06:29:54;18.00;;;14.68;;
63499;SDS011;49654;51.142;14.924;2023-05-07T06:32:21;18.60;;;15.20;;
63499;SDS011;49654;51.142;14.924;2023-05-07T06:34:48;17.58;;;15.02;;
63499;SDS011;49654;51.142;14.924;2023-05-07T06:37:15;16.73;;;13.68;;
63499;SDS011;49654;51.142;14.924;2023-05-07T06:39:42;17.10;;;14.15;;
63499;SDS011;49654;51.142;14.924;2023-05-07T06:42:09;16.92;;;12.98;;
63499;SDS011;49654;51.142;14.924;2023-05-07T06:44:36;15.55;;;13.43;;
63499;SDS011;49654;51.142;14.924;2023-05-07T06:47:04;15.50;;;11.80;;
63499;SDS011;49654;51.142;14.924;2023-05-07T06:49:31;15.88;;;12.65;;
63499;SDS011;49654;51.142;14.924;2023-05-07T06:51:58;17.20;;;15.32;;
63499;SDS011;49654;51.142;14.924;2023-05-07T06:54:25;15.32;;;13.45;;
63499;SDS011;49654;51.142;14.924;2023-05-07T06:56:52;14.23;;;12.73;;
63499;SDS011;49654;51.142;14.924;2023-05-07T06:59:19;14.88;;;13.38;;
63499;SDS011;49654;51.142;14.924;2023-05-07T07:01:46;15.43;;;13.88;;
63499;SDS011;49654;51.142;14.924;2023-05-07T07:04:14;14.75;;;12.93;;
63499;SDS011;49654;51.142;14.924;2023-05-07T07:06:41;14.80;;;12.88;;
63499;SDS011;49654;51.142;14.924;2023-05-07T07:09:08;14.18;;;12.27;;
63499;SDS011;49654;51.142;14.924;2023-05-07T07:11:35;15.93;;;12.73;;
63499;SDS011;49654;51.142;14.924;2023-05-07T07:14:02;15.18;;;11.93;;
63499;SDS011;49654;51.142;14.924;2023-05-07T07:16:30;14.27;;;11.63;;
63499;SDS011;49654;51.142;14.924;2023-05-07T07:18:57;13.95;;;11.13;;
63499;SDS011;49654;51.142;14.924;2023-05-07T07:21:25;12.38;;;11.18;;
63499;SDS011;49654;51.142;14.924;2023-05-07T07:23:52;14.02;;;11.15;;
63499;SDS011;49654;51.142;14.924;2023-05-07T07:26:19;12.98;;;11.57;;
63499;SDS011;49654;51.142;14.924;2023-05-07T07:28:46;11.82;;;10.63;;
63499;SDS011;49654;51.142;14.924;2023-05-07T07:31:13;11.90;;;10.70;;
63499;SDS011;49654;51.142;14.924;2023-05-07T07:33:40;13.50;;;10.23;;
63499;SDS011;49654;51.142;14.924;2023-05-07T07:36:07;11.00;;;9.50;;
63499;SDS011;49654;51.142;14.924;2023-05-07T07:38:35;10.60;;;9.50;;
63499;SDS011;49654;51.142;14.924;2023-05-07T07:41:03;10.60;;;9.50;;
63499;SDS011;49654;51.142;14.924;2023-05-07T07:43:30;10.82;;;9.73;;
63499;SDS011;49654;51.142;14.924;2023-05-07T07:45:57;11.07;;;9.98;;
63499;SDS011;49654;51.142;14.924;2023-05-07T07:48:23;11.05;;;9.88;;
63499;SDS011;49654;51.142;14.924;2023-05-07T07:50:51;11.80;;;10.60;;
63499;SDS011;49654;51.142;14.924;2023-05-07T07:53:18;12.45;;;10.85;;
63499;SDS011;49654;51.142;14.924;2023-05-07T07:55:46;10.88;;;8.95;;
63499;SDS011;49654;51.142;14.924;2023-05-07T07:58:13;9.63;;;8.68;;
63499;SDS011;49654;51.142;14.924;2023-05-07T08:00:40;8.77;;;7.90;;
63499;SDS011;49654;51.142;14.924;2023-05-07T08:03:08;10.02;;;8.13;;
63499;SDS011;49654;51.142;14.924;2023-05-07T08:05:36;10.75;;;8.00;;
63499;SDS011;49654;51.142;14.924;2023-05-07T08:08:04;10.68;;;8.15;;
63499;SDS011;49654;51.142;14.924;2023-05-07T08:10:31;9.18;;;7.45;;
63499;SDS011;49654;51.142;14.924;2023-05-07T08:13:01;8.30;;;7.13;;
63499;SDS011;49654;51.142;14.924;2023-05-07T08:15:29;8.82;;;7.75;;
63499;SDS011;49654;51.142;14.924;2023-05-07T08:17:56;10.40;;;8.52;;
63499;SDS011;49654;51.142;14.924;2023-05-07T08:20:25;9.70;;;8.60;;
63499;SDS011;49654;51.142;14.924;2023-05-07T08:22:52;9.70;;;8.70;;
63499;SDS011;49654;51.142;14.924;2023-05-07T08:25:19;11.18;;;8.55;;
63499;SDS011;49654;51.142;14.924;2023-05-07T08:27:46;9.65;;;8.70;;
63499;SDS011;49654;51.142;14.924;2023-05-07T08:30:14;10.27;;;9.20;;
63499;SDS011;49654;51.142;14.924;2023-05-07T08:32:42;10.20;;;9.02;;
63499;SDS011;49654;51.142;14.924;2023-05-07T08:35:08;14.77;;;9.85;;
63499;SDS011;49654;51.142;14.924;2023-05-07T08:37:35;9.50;;;8.40;;
63499;SDS011;49654;51.142;14.924;2023-05-07T08:40:03;8.18;;;7.38;;
63499;SDS011;49654;51.142;14.924;2023-05-07T08:42:30;9.18;;;7.85;;
63499;SDS011;49654;51.142;14.924;2023-05-07T08:44:57;8.65;;;7.75;;
63499;SDS011;49654;51.142;14.924;2023-05-07T08:47:29;8.90;;;8.00;;
63499;SDS011;49654;51.142;14.924;2023-05-07T08:50:01;9.63;;;7.82;;
63499;SDS011;49654;51.142;14.924;2023-05-07T08:52:28;8.70;;;7.60;;
63499;SDS011;49654;51.142;14.924;2023-05-07T08:54:56;10.23;;;8.05;;
63499;SDS011;49654;51.142;14.924;2023-05-07T08:57:23;10.75;;;8.48;;
63499;SDS011;49654;51.142;14.924;2023-05-07T08:59:50;10.48;;;8.35;;
63499;SDS011;49654;51.142;14.924;2023-05-07T09:02:17;9.15;;;8.20;;
63499;SDS011;49654;51.142;14.924;2023-05-07T09:04:45;9.95;;;8.95;;
63499;SDS011;49654;51.142;14.924;2023-05-07T09:07:12;9.15;;;8.25;;
63499;SDS011;49654;51.142;14.924;2023-05-07T09:09:39;8.02;;;7.22;;
63499;SDS011;49654;51.142;14.924;2023-05-07T09:12:06;8.73;;;7.82;;
63499;SDS011;49654;51.142;14.924;2023-05-07T09:14:33;8.98;;;8.13;;
63499;SDS011;49654;51.142;14.924;2023-05-07T09:17:00;8.77;;;7.75;;
63499;SDS011;49654;51.142;14.924;2023-05-07T09:19:27;9.40;;;7.70;;
63499;SDS011;49654;51.142;14.924;2023-05-07T09:21:59;8.45;;;7.32;;
63499;SDS011;49654;51.142;14.924;2023-05-07T09:24:26;8.32;;;7.53;;
63499;SDS011;49654;51.142;14.924;2023-05-07T09:26:57;8.23;;;6.85;;
63499;SDS011;49654;51.142;14.924;2023-05-07T09:29:24;8.48;;;7.03;;
63499;SDS011;49654;51.142;14.924;2023-05-07T09:31:51;9.00;;;7.22;;
63499;SDS011;49654;51.142;14.924;2023-05-07T09:34:18;8.00;;;6.93;;
63499;SDS011;49654;51.142;14.924;2023-05-07T09:36:45;9.63;;;7.70;;
63499;SDS011;49654;51.142;14.924;2023-05-07T09:39:13;7.82;;;7.03;;
63499;SDS011;49654;51.142;14.924;2023-05-07T09:41:43;8.30;;;7.00;;
63499;SDS011;49654;51.142;14.924;2023-05-07T09:44:10;6.72;;;6.10;;
63499;SDS011;49654;51.142;14.924;2023-05-07T09:46:38;7.07;;;6.38;;
63499;SDS011;49654;51.142;14.924;2023-05-07T09:49:08;7.10;;;6.35;;
63499;SDS011;49654;51.142;14.924;2023-05-07T09:51:41;6.60;;;6.00;;
63499;SDS011;49654;51.142;14.924;2023-05-07T09:54:15;7.00;;;6.30;;
63499;SDS011;49654;51.142;14.924;2023-05-07T09:56:43;7.38;;;6.60;;
63499;SDS011;49654;51.142;14.924;2023-05-07T09:59:12;7.40;;;6.60;;
63499;SDS011;49654;51.142;14.924;2023-05-07T10:01:40;9.48;;;7.80;;
63499;SDS011;49654;51.142;14.924;2023-05-07T10:04:07;8.00;;;7.30;;
63499;SDS011;49654;51.142;14.924;2023-05-07T10:06:35;8.60;;;7.75;;
63499;SDS011;49654;51.142;14.924;2023-05-07T10:09:03;8.63;;;7.75;;
63499;SDS011;49654;51.142;14.924;2023-05-07T10:11:33;8.23;;;7.40;;
63499;SDS011;49654;51.142;14.924;2023-05-07T10:14:00;9.02;;;8.18;;
63499;SDS011;49654;51.142;14.924;2023-05-07T10:16:28;9.18;;;8.25;;
63499;SDS011;49654;51.142;14.924;2023-05-07T10:18:58;11.82;;;9.13;;
63499;SDS011;49654;51.142;14.924;2023-05-07T10:21:26;10.18;;;9.18;;
63499;SDS011;49654;51.142;14.924;2023-05-07T10:23:58;11.43;;;10.23;;
63499;SDS011;49654;51.142;14.924;2023-05-07T10:26:25;10.73;;;9.70;;
63499;SDS011;49654;51.142;14.924;2023-05-07T10:28:58;10.48;;;8.80;;
63499;SDS011;49654;51.142;14.924;2023-05-07T10:31:36;7.80;;;7.10;;
63499;SDS011;49654;51.142;14.924;2023-05-07T10:34:12;7.88;;;7.15;;
63499;SDS011;49654;51.142;14.924;2023-05-07T10:36:42;8.00;;;7.20;;
63499;SDS011;49654;51.142;14.924;2023-05-07T10:39:09;7.15;;;6.43;;
63499;SDS011;49654;51.142;14.924;2023-05-07T10:41:36;8.43;;;7.40;;
63499;SDS011;49654;51.142;14.924;2023-05-07T10:44:05;7.25;;;6.55;;
63499;SDS011;49654;51.142;14.924;2023-05-07T10:46:32;7.75;;;7.00;;
63499;SDS011;49654;51.142;14.924;2023-05-07T10:49:09;8.60;;;7.70;;
63499;SDS011;49654;51.142;14.924;2023-05-07T10:51:38;7.30;;;6.60;;
63499;SDS011;49654;51.142;14.924;2023-05-07T10:56:53;7.68;;;6.97;;
63499;SDS011;49654;51.142;14.924;2023-05-07T10:59:37;7.22;;;6.50;;
63499;SDS011;49654;51.142;14.924;2023-05-07T11:02:08;11.50;;;7.32;;
63499;SDS011;49654;51.142;14.924;2023-05-07T11:04:36;8.70;;;7.70;;
63499;SDS011;49654;51.142;14.924;2023-05-07T11:10:05;6.63;;;6.03;;
63499;SDS011;49654;51.142;14.924;2023-05-07T11:12:49;6.20;;;5.60;;
63499;SDS011;49654;51.142;14.924;2023-05-07T11:18:08;6.07;;;4.82;;
63499;SDS011;49654;51.142;14.924;2023-05-07T11:20:55;5.03;;;4.57;;
63499;SDS011;49654;51.142;14.924;2023-05-07T11:26:25;4.97;;;4.47;;
63499;SDS011;49654;51.142;14.924;2023-05-07T11:28:53;6.82;;;5.05;;
63499;SDS011;49654;51.142;14.924;2023-05-07T11:31:23;5.32;;;4.20;;
63499;SDS011;49654;51.142;14.924;2023-05-07T11:33:52;6.25;;;4.68;;
63499;SDS011;49654;51.142;14.924;2023-05-07T11:36:21;5.57;;;4.63;;
63499;SDS011;49654;51.142;14.924;2023-05-07T11:38:49;7.30;;;3.58;;
63499;SDS011;49654;51.142;14.924;2023-05-07T11:41:16;4.72;;;3.70;;
63499;SDS011;49654;51.142;14.924;2023-05-07T11:43:54;4.30;;;3.08;;
63499;SDS011;49654;51.142;14.924;2023-05-07T11:46:23;5.15;;;3.40;;
63499;SDS011;49654;51.142;14.924;2023-05-07T11:48:50;5.03;;;3.95;;
63499;SDS011;49654;51.142;14.924;2023-05-07T11:51:21;4.68;;;3.67;;
63499;SDS011;49654;51.142;14.924;2023-05-07T11:53:49;4.60;;;3.50;;
63499;SDS011;49654;51.142;14.924;2023-05-07T11:56:17;4.40;;;3.63;;
63499;SDS011;49654;51.142;14.924;2023-05-07T11:58:45;3.88;;;3.47;;
63499;SDS011;49654;51.142;14.924;2023-05-07T12:01:13;5.22;;;4.28;;
63499;SDS011;49654;51.142;14.924;2023-05-07T12:03:43;4.80;;;3.70;;
63499;SDS011;49654;51.142;14.924;2023-05-07T12:06:11;4.57;;;4.15;;
63499;SDS011;49654;51.142;14.924;2023-05-07T12:08:39;4.90;;;4.40;;
63499;SDS011;49654;51.142;14.924;2023-05-07T12:11:08;4.75;;;4.15;;
63499;SDS011;49654;51.142;14.924;2023-05-07T12:13:36;4.13;;;3.72;;
63499;SDS011;49654;51.142;14.924;2023-05-07T12:16:04;4.97;;;3.53;;
63499;SDS011;49654;51.142;14.924;2023-05-07T12:18:33;4.78;;;4.38;;
63499;SDS011;49654;51.142;14.924;2023-05-07T12:21:03;7.90;;;6.90;;
63499;SDS011;49654;51.142;14.924;2023-05-07T12:23:31;8.05;;;6.95;;
63499;SDS011;49654;51.142;14.924;2023-05-07T12:25:59;7.60;;;6.88;;
63499;SDS011;49654;51.142;14.924;2023-05-07T12:28:26;7.18;;;6.47;;
63499;SDS011;49654;51.142;14.924;2023-05-07T12:30:53;7.43;;;6.40;;
63499;SDS011;49654;51.142;14.924;2023-05-07T12:33:23;9.13;;;6.40;;
63499;SDS011;49654;51.142;14.924;2023-05-07T12:35:53;6.45;;;5.85;;
63499;SDS011;49654;51.142;14.924;2023-05-07T12:38:23;7.32;;;6.25;;
63499;SDS011;49654;51.142;14.924;2023-05-07T12:40:52;7.05;;;5.95;;
63499;SDS011;49654;51.142;14.924;2023-05-07T12:43:21;7.15;;;5.90;;
63499;SDS011;49654;51.142;14.924;2023-05-07T12:45:51;6.70;;;6.03;;
63499;SDS011;49654;51.142;14.924;2023-05-07T12:48:20;6.50;;;5.90;;
63499;SDS011;49654;51.142;14.924;2023-05-07T12:50:49;7.60;;;6.53;;
63499;SDS011;49654;51.142;14.924;2023-05-07T12:53:16;8.65;;;6.93;;
63499;SDS011;49654;51.142;14.924;2023-05-07T12:55:48;9.23;;;7.30;;
63499;SDS011;49654;51.142;14.924;2023-05-07T12:58:17;10.40;;;7.63;;
63499;SDS011;49654;51.142;14.924;2023-05-07T13:00:45;8.10;;;7.30;;
63499;SDS011;49654;51.142;14.924;2023-05-07T13:03:20;8.15;;;7.40;;
63499;SDS011;49654;51.142;14.924;2023-05-07T13:05:48;8.20;;;7.40;;
63499;SDS011;49654;51.142;14.924;2023-05-07T13:08:22;10.65;;;7.47;;
63499;SDS011;49654;51.142;14.924;2023-05-07T13:10:51;7.20;;;6.50;;
63499;SDS011;49654;51.142;14.924;2023-05-07T13:13:18;8.80;;;7.63;;
63499;SDS011;49654;51.142;14.924;2023-05-07T13:15:45;6.68;;;5.97;;
63499;SDS011;49654;51.142;14.924;2023-05-07T13:18:12;7.95;;;6.30;;
63499;SDS011;49654;51.142;14.924;2023-05-07T13:20:39;7.00;;;6.30;;
63499;SDS011;49654;51.142;14.924;2023-05-07T13:23:06;7.32;;;6.57;;
63499;SDS011;49654;51.142;14.924;2023-05-07T13:25:33;8.07;;;6.32;;
63499;SDS011;49654;51.142;14.924;2023-05-07T13:28:01;8.15;;;7.40;;
63499;SDS011;49654;51.142;14.924;2023-05-07T13:30:28;9.05;;;8.15;;
63499;SDS011;49654;51.142;14.924;2023-05-07T13:32:55;8.32;;;7.47;;
63499;SDS011;49654;51.142;14.924;2023-05-07T13:35:22;11.63;;;8.23;;
63499;SDS011;49654;51.142;14.924;2023-05-07T13:37:49;9.27;;;8.32;;
63499;SDS011;49654;51.142;14.924;2023-05-07T13:40:17;8.80;;;8.00;;
63499;SDS011;49654;51.142;14.924;2023-05-07T13:42:45;8.73;;;7.82;;
63499;SDS011;49654;51.142;14.924;2023-05-07T13:45:13;8.77;;;7.75;;
63499;SDS011;49654;51.142;14.924;2023-05-07T13:47:40;7.50;;;6.82;;
63499;SDS011;49654;51.142;14.924;2023-05-07T13:50:07;7.72;;;6.88;;
63499;SDS011;49654;51.142;14.924;2023-05-07T13:52:36;7.65;;;6.50;;
63499;SDS011;49654;51.142;14.924;2023-05-07T13:55:06;8.07;;;7.30;;
63499;SDS011;49654;51.142;14.924;2023-05-07T13:57:33;8.40;;;7.50;;
63499;SDS011;49654;51.142;14.924;2023-05-07T14:00:00;10.02;;;8.48;;
63499;SDS011;49654;51.142;14.924;2023-05-07T14:02:29;10.90;;;8.52;;
63499;SDS011;49654;51.142;14.924;2023-05-07T14:04:56;10.15;;;9.13;;
63499;SDS011;49654;51.142;14.924;2023-05-07T14:07:23;9.32;;;8.45;;
63499;SDS011;49654;51.142;14.924;2023-05-07T14:09:49;9.90;;;8.65;;
63499;SDS011;49654;51.142;14.924;2023-05-07T14:12:16;10.20;;;8.02;;
63499;SDS011;49654;51.142;14.924;2023-05-07T14:14:43;8.77;;;7.97;;
63499;SDS011;49654;51.142;14.924;2023-05-07T14:17:11;10.07;;;9.02;;
63499;SDS011;49654;51.142;14.924;2023-05-07T14:19:39;10.05;;;8.77;;
63499;SDS011;49654;51.142;14.924;2023-05-07T14:22:06;10.73;;;7.90;;
63499;SDS011;49654;51.142;14.924;2023-05-07T14:24:33;8.57;;;7.78;;
63499;SDS011;49654;51.142;14.924;2023-05-07T14:27:00;10.63;;;8.27;;
63499;SDS011;49654;51.142;14.924;2023-05-07T14:29:27;6.95;;;6.22;;
63499;SDS011;49654;51.142;14.924;2023-05-07T14:31:54;6.60;;;5.15;;
63499;SDS011;49654;51.142;14.924;2023-05-07T14:34:21;6.00;;;4.88;;
63499;SDS011;49654;51.142;14.924;2023-05-07T14:36:49;5.78;;;4.95;;